Phippsburg, Maine
Current Conditions -  °F | °C
As of 1:53 PM on Saturday 25 Oct 2014 (Local Time) from KIWI Reporting Station
Clear Clear  
Wind Chill: 62°   Ceiling: Unl
Heat Index: 62°   Visibility: 10mi
Dew Point: 38°   Wind: 5mph
Humidity: 41%   Direction: NA
Pressure: 29.6"   Gusts: NA
Location:  43.82°N, 69.82°W
Report Text: KIWI 251753Z AUTO VRB04KT 10SM CLR 17/03 A2960 RMK AO2 SLP025 T01670033 10167 20061 56022
Loading
Personal Weather Stations






























Interactive Weather Map
Tropical Storm Tracking
New forecast layout! Learn more

10-Day Weather Forecast

Advertisements
Track Severe Weather on mobile